Nearby METAR Reports

 

KNUQ - Moffett Nas/Mtn, California, USA
Distance from station: N 9mi, 14km
Updated: Tue, 19-Jun-2018 11:56pm PDT
Clear
Clear
 Wind from N
Wind: N 8 mph , 13 km/h
Temperature: 57°F , 14°C
Dew Point: 54°F , 12°C
Humidity: 88%
Barometer: 30.03 inHg , 1016.9 hPa
Clouds: Clear
Visibility: 10 miles , 16 km
2018/06/20 06:56 KNUQ 200656Z 36007KT 10SM CLR 14/12 A3003 RMK AO2 SLP172 T01440117
KSJC - San Jose, California, USA
Distance from station: NE 9mi, 14km
Updated: Tue, 19-Jun-2018 11:53pm PDT
Few Clouds
Few Clouds
 Wind from NW
Wind: NW 6 mph , 9 km/h
Temperature: 59°F , 15°C
Dew Point: 54°F , 12°C
Humidity: 82%
Barometer: 30.02 inHg , 1016.6 hPa
Clouds: Few Clouds
Visibility: 10 miles , 16 km
Cloud details: Few Clouds 1000 ft
2018/06/20 06:53 KSJC 200653Z 32005KT 10SM FEW010 15/12 A3002 RMK AO2 SLP166 LAST T01500117
 
KRHV - San Jose/Reid, California, USA
Distance from station: ENE 12mi, 19km
Updated: Tue, 19-Jun-2018 9:47pm PDT
NOT Current
Clear
Clear
 Wind from NW
Wind: NW 9 mph , 15 km/h
Temperature: 61°F , 16°C
Dew Point: 54°F , 12°C
Humidity: 77%
Barometer: 30.02 inHg , 1016.6 hPa
Clouds: Clear
Visibility: 10 miles , 16 km
2018/06/20 04:47 KRHV 200447Z 31008KT 10SM SKC 16/12 A3002 RMK LAST
KPAO - Palo Alto, California, USA
Distance from station: NNW 14mi, 23km
Updated: Tue, 19-Jun-2018 8:47pm PDT
NOT Current
Clear
Clear
 Wind from NW
Wind: NW 7 mph , 11 km/h
Temperature: 59°F , 15°C
Dew Point: 54°F , 12°C
Humidity: 82%
Barometer: 30.03 inHg , 1016.9 hPa
Clouds: Clear
Visibility: 10 miles , 16 km
2018/06/20 03:47 KPAO 200347Z 32006KT 10SM SKC 15/12 A3003 RMK LAST
 
KSQL - San Carlos Airpo, California, USA
Distance from station: NW 21mi, 34km
Updated: Wed, 20-Jun-2018 12:20am PDT
Clear
Clear
 Wind from NW
Wind: NW 7 mph , 11 km/h
Temperature: 55°F , 13°C
Dew Point: 50°F , 10°C
Humidity: 82%
Barometer: 30.02 inHg , 1016.6 hPa
Clouds: Clear
Visibility: 10 miles , 16 km
2018/06/20 07:20 KSQL 200720Z AUTO 32006KT 10SM CLR 13/10 A3002 RMK AO2
KWVI - Watsonville, California, USA
Distance from station: SSE 27mi, 44km
Updated: Tue, 19-Jun-2018 11:53pm PDT
Clear
Clear
 Wind from calm
Wind: Calm
Temperature: 54°F , 12°C
Dew Point: 52°F , 11°C
Humidity: 94%
Barometer: 30.02 inHg , 1016.6 hPa
Clouds: Clear
Visibility: 7 miles , 11 km
2018/06/20 06:53 KWVI 200653Z AUTO 00000KT 7SM CLR 12/11 A3002 RMK AO2 SLP166 T01220106
 
KHWD - Hayward, California, USA
Distance from station: N 28mi, 44km
Updated: Tue, 19-Jun-2018 11:54pm PDT
Mostly Cloudy
Mostly Cloudy
 Wind from W
Wind: W 3 mph , 6 km/h
Temperature: 57°F , 14°C
Dew Point: 52°F , 11°C
Humidity: 82%
Barometer: 30.02 inHg , 1016.6 hPa
Clouds: Mostly Cloudy
Visibility: 10 miles , 16 km
Cloud details: Mostly Cloudy 1000 ft
2018/06/20 06:54 KHWD 200654Z 28003KT 10SM BKN010 14/11 A3002 RMK AO2 SLP176 T01390106
KSFO - San Francisco, California, USA
Distance from station: NW 30mi, 49km
Updated: Tue, 19-Jun-2018 11:56pm PDT
Partly Cloudy
Partly Cloudy
 Wind from W
Wind: W 10 mph , 17 km/h
Temperature: 55°F , 13°C
Dew Point: 48°F , 9°C
Humidity: 77%
Barometer: 30.02 inHg , 1016.6 hPa
Clouds: Partly Cloudy
Visibility: 10 miles , 16 km
Cloud details: Partly Cloudy 1000 ft
2018/06/20 06:56 KSFO 200656Z 26009KT 10SM SCT010 13/09 A3002 RMK AO2 SLP167 T01330094 $
 
KHAF - Half Moon Bay, California, USA
Distance from station: WNW 31mi, 50km
Updated: Wed, 20-Jun-2018 12:15am PDT
Overcast
Overcast
 Wind from NW
Wind: NW 8 mph , 13 km/h
Temperature: 54°F , 12°C
Dew Point: 50°F , 10°C
Humidity: 88%
Barometer: 30.04 inHg , 1017.3 hPa
Clouds: Overcast
Visibility: 9 miles , 14 km
Cloud details: Overcast 600 ft
2018/06/20 07:15 KHAF 200715Z AUTO 32007KT 9SM OVC006 12/10 A3004 RMK AO2
KOAK - Oakland, California, USA
Distance from station: NNW 31mi, 50km
Updated: Tue, 19-Jun-2018 11:53pm PDT
Mostly Cloudy
Mostly Cloudy
 Wind from WSW
Wind: WSW 10 mph , 17 km/h
Temperature: 55°F , 13°C
Dew Point: 52°F , 11°C
Humidity: 88%
Barometer: 30.03 inHg , 1016.9 hPa
Clouds: Mostly Cloudy
Visibility: 7 miles , 11 km
Cloud details: Mostly Cloudy 1000 ft
2018/06/20 06:53 KOAK 200653Z 25009KT 7SM BKN010 13/11 A3003 RMK AO2 SLP169 T01280111
 
KLVK - Livermore, California, USA
Distance from station: NNE 31mi, 51km
Updated: Tue, 19-Jun-2018 11:53pm PDT
Clear
Clear
 Wind from WNW
Wind: WNW 8 mph , 13 km/h
Temperature: 55°F , 13°C
Dew Point: 55°F , 13°C
Humidity: 100%
Barometer: 30.00 inHg , 1015.9 hPa
Clouds: Clear
Visibility: 10 miles , 16 km
2018/06/20 06:53 KLVK 200653Z AUTO 30007KT 10SM CLR 13/13 A3000 RMK AO2 SLP156 T01330133
KCVH - Hollister Muni, California, USA
Distance from station: SE 42mi, 68km
Updated: Wed, 20-Jun-2018 12:15am PDT
Clear
Clear
 Wind from calm
Wind: Calm
Temperature: 55°F , 13°C
Dew Point: 52°F , 11°C
Humidity: 88%
Barometer: 30.01 inHg , 1016.3 hPa
Clouds: Clear
Visibility: 10 miles , 16 km
2018/06/20 07:15 KCVH 200715Z AUTO 00000KT 10SM CLR 13/11 A3001 RMK A01
 
KSNS - Salinas, California, USA
Distance from station: SSE 48mi, 77km
Updated: Tue, 19-Jun-2018 11:53pm PDT
Clear
Clear
 Wind from NNW
Wind: NNW 7 mph , 11 km/h
Temperature: 55°F , 13°C
Dew Point: 52°F , 11°C
Humidity: 88%
Barometer: 30.01 inHg , 1016.3 hPa
Clouds: Clear
Visibility: 9 miles , 14 km
2018/06/20 06:53 KSNS 200653Z AUTO 33006KT 9SM CLR 13/11 A3001 RMK AO2 SLP170 T01330111
KMRY - Monterey, California, USA
Distance from station: SSE 49mi, 78km
Updated: Tue, 19-Jun-2018 11:54pm PDT
Clear
Clear
 Wind from W
Wind: W 5 mph , 7 km/h
Temperature: 54°F , 12°C
Dew Point: 52°F , 11°C
Humidity: 94%
Barometer: 30.02 inHg , 1016.6 hPa
Clouds: Clear
Visibility: 10 miles , 16 km
2018/06/20 06:54 KMRY 200654Z AUTO 26004KT 10SM CLR 12/11 A3002 RMK AO2 SLP177 T01220106
 
KCCR - Concord, California, USA
Distance from station: N 50mi, 81km
Updated: Tue, 19-Jun-2018 11:53pm PDT
Clear
Clear
 Wind from SSW
Wind: SSW 10 mph , 17 km/h
Temperature: 61°F , 16°C
Dew Point: 52°F , 11°C
Humidity: 72%
Barometer: 29.98 inHg , 1015.2 hPa
Clouds: Clear
Visibility: 10 miles , 16 km
2018/06/20 06:53 KCCR 200653Z AUTO 20009KT 10SM CLR 16/11 A2998 RMK AO2 SLP139 T01560106

Metar display script from Saratoga-Weather.org